createdAt,value
2018-12-14T00:02:25.368Z,18.55
2018-12-14T00:04:55.117Z,18.02
2018-12-14T00:07:25.569Z,18.07
2018-12-14T00:09:54.995Z,17.05
2018-12-14T00:12:24.667Z,16.67
2018-12-14T00:14:54.509Z,18.02
2018-12-14T00:17:24.232Z,18.30
2018-12-14T00:19:53.668Z,16.62
2018-12-14T00:22:22.041Z,15.13
2018-12-14T00:24:50.291Z,18.00
2018-12-14T00:27:18.917Z,16.40
2018-12-14T00:29:47.399Z,16.32
2018-12-14T00:32:15.731Z,15.90
2018-12-14T00:34:43.931Z,16.57
2018-12-14T00:37:12.309Z,16.30
2018-12-14T00:39:40.553Z,16.42
2018-12-14T00:42:08.929Z,14.28
2018-12-14T00:44:37.215Z,16.95
2018-12-14T00:47:05.534Z,16.90
2018-12-14T00:49:33.818Z,17.23
2018-12-14T00:52:02.169Z,16.35
2018-12-14T00:54:30.372Z,16.65
2018-12-14T00:56:58.667Z,16.12
2018-12-14T00:59:27.007Z,15.90
2018-12-14T01:01:55.258Z,15.90
2018-12-14T01:04:23.547Z,16.35
2018-12-14T01:06:51.798Z,16.80
2018-12-14T01:09:20.166Z,16.80
2018-12-14T01:11:48.475Z,16.60
2018-12-14T01:14:16.806Z,16.73
2018-12-14T01:16:45.132Z,16.30
2018-12-14T01:19:13.511Z,14.43
2018-12-14T01:21:41.814Z,17.05
2018-12-14T01:24:10.123Z,15.63
2018-12-14T01:26:38.396Z,16.95
2018-12-14T01:29:06.719Z,16.02
2018-12-14T01:31:34.958Z,16.40
2018-12-14T01:34:03.404Z,16.82
2018-12-14T01:36:31.813Z,15.20
2018-12-14T01:39:00.192Z,16.27
2018-12-14T01:41:28.665Z,17.17
2018-12-14T01:43:56.903Z,15.32
2018-12-14T01:46:25.248Z,16.85
2018-12-14T01:48:53.546Z,17.37
2018-12-14T01:51:21.867Z,17.45
2018-12-14T01:53:50.127Z,16.10
2018-12-14T01:56:18.435Z,16.00
2018-12-14T01:58:46.649Z,15.32
2018-12-14T02:01:14.834Z,15.35
2018-12-14T02:03:43.154Z,16.03
2018-12-14T02:06:11.511Z,16.65
2018-12-14T02:08:39.786Z,16.03
2018-12-14T02:11:07.972Z,16.27
2018-12-14T02:13:36.301Z,15.98
2018-12-14T02:16:04.701Z,15.18
2018-12-14T02:18:32.900Z,15.43
2018-12-14T02:21:01.144Z,16.90
2018-12-14T02:23:29.470Z,17.30
2018-12-14T02:25:57.769Z,16.70
2018-12-14T02:28:26.050Z,18.10
2018-12-14T02:30:54.319Z,16.30
2018-12-14T02:33:22.670Z,18.12
2018-12-14T02:35:50.882Z,18.10
2018-12-14T02:38:19.266Z,18.50
2018-12-14T02:40:47.669Z,16.15
2018-12-14T02:43:15.955Z,17.20
2018-12-14T02:45:44.263Z,15.60
2018-12-14T02:48:12.533Z,16.30
2018-12-14T02:50:40.787Z,17.37
2018-12-14T02:53:09.021Z,16.70
2018-12-14T02:55:37.336Z,17.60
2018-12-14T02:58:05.784Z,17.13
2018-12-14T03:00:34.139Z,16.87
2018-12-14T03:03:02.421Z,17.65
2018-12-14T03:05:30.782Z,17.62
2018-12-14T03:07:59.126Z,18.40
2018-12-14T03:10:27.511Z,19.05
2018-12-14T03:12:55.857Z,19.23
2018-12-14T03:15:24.114Z,18.30
2018-12-14T03:17:52.394Z,19.15
2018-12-14T03:20:20.615Z,18.95
2018-12-14T03:22:48.959Z,17.95
2018-12-14T03:25:17.317Z,18.80
2018-12-14T03:27:45.606Z,20.10
2018-12-14T03:30:13.935Z,18.52
2018-12-14T03:32:42.418Z,18.20
2018-12-14T03:35:11.059Z,19.90
2018-12-14T03:37:39.327Z,19.25
2018-12-14T03:40:07.698Z,21.10
2018-12-14T03:42:35.959Z,20.10
2018-12-14T03:46:33.728Z,18.73
2018-12-14T03:49:02.054Z,20.62
2018-12-14T03:51:30.378Z,20.80
2018-12-14T03:53:58.706Z,19.70
2018-12-14T03:56:27.080Z,21.70
2018-12-14T03:58:55.284Z,21.10
2018-12-14T04:01:23.573Z,20.32
2018-12-14T04:03:51.791Z,20.48
2018-12-14T04:06:20.074Z,19.30
2018-12-14T04:08:48.380Z,21.00
2018-12-14T04:11:16.682Z,21.05
2018-12-14T04:13:44.991Z,22.30
2018-12-14T04:16:13.339Z,22.87
2018-12-14T04:18:41.712Z,20.63
2018-12-14T04:21:10.047Z,20.35
2018-12-14T04:23:40.374Z,19.53
2018-12-14T04:26:08.757Z,22.10
2018-12-14T04:28:37.217Z,22.40
2018-12-14T04:31:05.564Z,22.25
2018-12-14T04:33:34.186Z,22.17
2018-12-14T04:36:02.603Z,21.43
2018-12-14T04:38:30.952Z,19.87
2018-12-14T04:40:59.439Z,19.20
2018-12-14T04:43:27.757Z,21.55
2018-12-14T04:45:56.092Z,20.50
2018-12-14T04:48:24.438Z,21.55
2018-12-14T04:57:38.224Z,22.27
2018-12-14T05:00:07.328Z,22.00
2018-12-14T05:02:35.760Z,22.32
2018-12-14T05:05:04.196Z,22.42
2018-12-14T05:07:32.488Z,24.00
2018-12-14T05:10:00.783Z,24.75
2018-12-14T05:12:29.057Z,24.57
2018-12-14T05:14:57.347Z,22.50
2018-12-14T05:17:25.933Z,24.50
2018-12-14T05:19:54.155Z,24.18
2018-12-14T05:22:22.507Z,23.60
2018-12-14T05:24:50.757Z,23.00
2018-12-14T05:27:19.110Z,23.92
2018-12-14T05:29:47.557Z,24.82
2018-12-14T05:32:15.901Z,23.98
2018-12-14T05:34:44.245Z,24.30
2018-12-14T05:37:12.476Z,24.77
2018-12-14T05:39:40.771Z,24.52
2018-12-14T05:42:09.090Z,25.23
2018-12-14T05:44:37.418Z,25.23
2018-12-14T05:47:05.766Z,25.15
2018-12-14T05:49:34.263Z,28.05
2018-12-14T05:52:02.647Z,26.77
2018-12-14T05:54:30.965Z,31.10
2018-12-14T05:56:59.977Z,27.13
2018-12-14T05:59:28.296Z,28.03
2018-12-14T06:01:56.561Z,28.00
2018-12-14T06:04:24.763Z,25.50
2018-12-14T06:06:53.015Z,26.17
2018-12-14T06:09:21.459Z,26.55
2018-12-14T06:11:49.806Z,24.72
2018-12-14T06:14:18.031Z,25.27
2018-12-14T06:16:46.331Z,25.68
2018-12-14T06:19:14.595Z,25.08
2018-12-14T06:21:42.857Z,24.90
2018-12-14T06:24:11.191Z,25.02
2018-12-14T06:26:39.630Z,24.33
2018-12-14T06:29:07.841Z,24.77
2018-12-14T06:31:36.217Z,24.47
2018-12-14T06:34:04.566Z,25.62
2018-12-14T06:36:32.838Z,24.27
2018-12-14T06:39:01.089Z,25.12
2018-12-14T06:41:29.387Z,25.23
2018-12-14T06:43:57.754Z,25.27
2018-12-14T06:46:26.066Z,25.60
2018-12-14T06:48:54.429Z,25.57
2018-12-14T06:51:22.868Z,26.37
2018-12-14T06:53:51.325Z,26.33
2018-12-14T06:56:19.809Z,27.27
2018-12-14T06:58:48.038Z,27.22
2018-12-14T07:01:16.340Z,26.82
2018-12-14T07:03:44.554Z,26.68
2018-12-14T07:06:12.840Z,24.82
2018-12-14T07:08:41.071Z,27.02
2018-12-14T07:11:09.695Z,23.37
2018-12-14T07:13:37.979Z,26.50
2018-12-14T07:16:06.353Z,23.77
2018-12-14T07:18:34.591Z,23.77
2018-12-14T07:21:02.917Z,24.47
2018-12-14T07:23:31.171Z,25.12
2018-12-14T07:25:59.420Z,25.57
2018-12-14T07:28:27.754Z,26.12
2018-12-14T07:30:56.213Z,24.10
2018-12-14T07:33:24.555Z,24.92
2018-12-14T07:35:52.796Z,24.95
2018-12-14T07:38:21.321Z,24.23
2018-12-14T07:40:49.834Z,24.43
2018-12-14T07:43:18.230Z,24.30
2018-12-14T07:45:46.549Z,24.75
2018-12-14T07:48:14.778Z,23.98
2018-12-14T07:50:43.279Z,23.80
2018-12-14T07:53:11.580Z,25.35
2018-12-14T07:55:39.945Z,25.17
2018-12-14T07:58:08.249Z,26.40
2018-12-14T08:00:36.949Z,25.43
2018-12-14T08:03:05.304Z,26.65
2018-12-14T08:05:33.603Z,26.43
2018-12-14T08:08:01.857Z,25.72
2018-12-14T08:10:30.502Z,27.25
2018-12-14T08:12:59.003Z,27.25
2018-12-14T08:15:27.568Z,26.30
2018-12-14T08:17:55.787Z,26.65
2018-12-14T08:20:24.241Z,25.50
2018-12-14T08:22:52.636Z,27.32
2018-12-14T08:25:21.047Z,31.57
2018-12-14T08:27:49.456Z,27.75
2018-12-14T08:30:17.791Z,24.18
2018-12-14T08:32:46.220Z,23.80
2018-12-14T08:35:14.829Z,26.00
2018-12-14T08:37:43.167Z,25.90
2018-12-14T08:40:11.441Z,25.62
2018-12-14T08:42:46.683Z,24.10
2018-12-14T08:45:15.159Z,23.25
2018-12-14T08:47:43.518Z,26.57
2018-12-14T08:50:11.914Z,26.12
2018-12-14T08:52:40.201Z,24.93
2018-12-14T08:55:08.671Z,22.90
2018-12-14T08:57:37.066Z,24.20
2018-12-14T09:00:06.132Z,25.27
2018-12-14T09:02:34.441Z,23.52
2018-12-14T09:05:02.708Z,26.05
2018-12-14T09:07:30.947Z,23.57
2018-12-14T09:09:59.210Z,24.12
2018-12-14T09:12:27.636Z,23.87
2018-12-14T09:14:55.928Z,24.10
2018-12-14T09:17:24.291Z,24.63
2018-12-14T09:19:53.095Z,24.47
2018-12-14T09:22:21.428Z,21.87
2018-12-14T09:24:49.752Z,27.25
2018-12-14T09:27:18.081Z,25.10
2018-12-14T09:29:46.648Z,21.05
2018-12-14T09:32:15.007Z,22.15
2018-12-14T09:34:43.403Z,23.40
2018-12-14T09:37:11.645Z,23.32
2018-12-14T09:39:39.934Z,22.67
2018-12-14T09:42:08.242Z,22.48
2018-12-14T09:44:36.462Z,22.15
2018-12-14T09:47:04.912Z,22.93
2018-12-14T09:49:33.190Z,24.12
2018-12-14T09:52:01.564Z,20.12
2018-12-14T09:54:29.883Z,21.48
2018-12-14T09:56:58.150Z,21.95
2018-12-14T09:59:26.519Z,27.13
2018-12-14T10:01:54.836Z,20.88
2018-12-14T10:04:23.175Z,20.82
2018-12-14T10:06:51.560Z,19.55
2018-12-14T10:09:19.950Z,19.67
2018-12-14T10:11:54.880Z,19.10
2018-12-14T10:14:18.467Z,20.20
2018-12-14T10:16:46.897Z,17.30
2018-12-14T10:19:15.292Z,18.70
2018-12-14T10:21:43.784Z,18.73
2018-12-14T10:24:12.117Z,18.52
2018-12-14T10:26:40.435Z,18.30
2018-12-14T10:29:09.289Z,18.02
2018-12-14T10:31:37.651Z,16.57
2018-12-14T10:34:06.630Z,14.97
2018-12-14T10:36:34.864Z,16.15
2018-12-14T10:39:03.760Z,15.72
2018-12-14T10:41:32.098Z,15.50
2018-12-14T10:44:00.462Z,16.85
2018-12-14T10:46:28.722Z,14.63
2018-12-14T10:48:57.014Z,14.05
2018-12-14T10:51:25.335Z,13.50
2018-12-14T10:53:53.803Z,13.93
2018-12-14T10:56:22.238Z,13.98
2018-12-14T10:58:50.546Z,12.03
2018-12-14T11:01:24.314Z,13.30
2018-12-14T11:03:52.568Z,13.55
2018-12-14T11:06:21.058Z,13.00
2018-12-14T11:08:49.353Z,15.70
2018-12-14T11:11:17.659Z,16.82
2018-12-14T11:13:45.988Z,14.43
2018-12-14T11:16:14.228Z,12.60
2018-12-14T11:18:42.619Z,13.03
2018-12-14T11:21:10.879Z,13.25
2018-12-14T11:23:39.174Z,12.60
2018-12-14T11:26:07.580Z,11.93
2018-12-14T11:28:35.918Z,12.63
2018-12-14T11:31:04.438Z,12.00
2018-12-14T11:33:32.793Z,11.70
2018-12-14T11:36:01.046Z,13.53
2018-12-14T11:38:29.428Z,13.13
2018-12-14T11:40:57.803Z,11.78
2018-12-14T11:43:26.181Z,12.13
2018-12-14T11:45:54.437Z,12.43
2018-12-14T11:48:22.805Z,11.88
2018-12-14T11:50:51.069Z,13.20
2018-12-14T11:53:20.177Z,11.15
2018-12-14T11:55:49.084Z,11.90
2018-12-14T11:58:17.455Z,12.20
2018-12-14T12:00:45.826Z,13.72
2018-12-14T12:03:14.136Z,13.95
2018-12-14T12:05:42.431Z,11.15
2018-12-14T12:08:12.615Z,10.90
2018-12-14T12:10:41.167Z,10.80
2018-12-14T12:13:09.516Z,17.15
2018-12-14T12:15:37.794Z,11.60
2018-12-14T12:18:06.104Z,12.50
2018-12-14T12:20:34.384Z,11.40
2018-12-14T12:23:02.656Z,11.45
2018-12-14T12:25:30.959Z,9.80
2018-12-14T12:27:59.366Z,11.20
2018-12-14T12:30:27.759Z,11.55
2018-12-14T12:32:56.215Z,10.88
2018-12-14T12:35:24.548Z,13.05
2018-12-14T12:37:52.830Z,11.65
2018-12-14T12:40:21.136Z,11.40
2018-12-14T12:42:49.538Z,11.17
2018-12-14T12:45:17.815Z,10.18
2018-12-14T12:47:46.061Z,10.77
2018-12-14T12:50:14.642Z,11.15
2018-12-14T12:52:43.142Z,10.55
2018-12-14T12:55:11.456Z,11.63
2018-12-14T12:57:39.825Z,11.08
2018-12-14T13:00:08.360Z,10.82
2018-12-14T13:02:36.617Z,12.33
2018-12-14T13:05:05.158Z,11.80
2018-12-14T13:07:33.550Z,12.23
2018-12-14T13:10:02.884Z,11.60
2018-12-14T13:12:31.213Z,12.13
2018-12-14T13:14:59.406Z,13.10
2018-12-14T13:17:27.682Z,13.38
2018-12-14T13:19:55.945Z,17.03
2018-12-14T13:22:24.309Z,12.85
2018-12-14T13:24:52.528Z,12.77
2018-12-14T13:27:20.817Z,12.00
2018-12-14T13:29:49.060Z,11.12
2018-12-14T13:32:17.427Z,10.95
2018-12-14T13:52:01.909Z,12.82
2018-12-14T13:54:30.260Z,10.43
2018-12-14T13:56:58.576Z,11.60
2018-12-14T13:59:26.849Z,12.00
2018-12-14T14:01:55.082Z,11.63
2018-12-14T14:04:23.374Z,11.60
2018-12-14T14:06:51.701Z,13.08
2018-12-14T14:09:20.150Z,13.20
2018-12-14T14:11:48.435Z,14.40
2018-12-14T14:14:16.813Z,14.10
2018-12-14T14:16:45.326Z,14.90
2018-12-14T14:19:13.678Z,13.72
2018-12-14T14:21:41.983Z,15.30
2018-12-14T14:24:10.541Z,17.23
2018-12-14T14:26:44.369Z,19.60
2018-12-14T14:29:09.232Z,20.50
2018-12-14T14:31:37.582Z,18.32
2018-12-14T14:34:05.868Z,17.50
2018-12-14T14:36:34.150Z,18.87
2018-12-14T14:39:02.505Z,20.72
2018-12-14T14:41:30.874Z,21.45
2018-12-14T14:43:59.131Z,22.25
2018-12-14T14:46:27.487Z,20.10
2018-12-14T14:48:55.769Z,20.30
2018-12-14T14:51:24.269Z,25.20
2018-12-14T14:53:52.560Z,21.50
2018-12-14T14:56:20.971Z,21.70
2018-12-14T14:58:49.158Z,22.60
2018-12-14T15:01:17.470Z,24.77
2018-12-14T15:03:45.899Z,22.50
2018-12-14T15:06:14.347Z,22.58
2018-12-14T15:08:42.566Z,24.77
2018-12-14T15:11:10.931Z,24.15
2018-12-14T15:13:39.218Z,32.60
2018-12-14T15:16:07.608Z,25.30
2018-12-14T15:18:35.930Z,26.25
2018-12-14T15:21:04.208Z,26.60
2018-12-14T15:23:32.507Z,27.13
2018-12-14T15:26:00.812Z,25.97
2018-12-14T15:28:29.135Z,26.48
2018-12-14T15:30:57.457Z,27.20
2018-12-14T15:33:25.884Z,27.05
2018-12-14T15:35:54.222Z,29.02
2018-12-14T15:38:22.604Z,27.60
2018-12-14T15:40:51.083Z,28.12
2018-12-14T15:43:19.422Z,27.07
2018-12-14T15:45:47.754Z,28.02
2018-12-14T15:48:16.027Z,28.20
2018-12-14T15:50:44.255Z,27.13
2018-12-14T15:53:12.605Z,28.87
2018-12-14T15:55:40.906Z,29.00
2018-12-14T15:58:09.305Z,30.90
2018-12-14T16:00:37.597Z,26.82
2018-12-14T16:03:05.951Z,28.52
2018-12-14T16:05:34.261Z,30.05
2018-12-14T16:08:02.618Z,28.47
2018-12-14T16:10:30.818Z,29.85
2018-12-14T16:12:59.701Z,32.60
2018-12-14T16:15:28.065Z,29.37
2018-12-14T16:17:56.402Z,31.65
2018-12-14T16:20:24.808Z,31.00
2018-12-14T16:22:53.132Z,30.62
2018-12-14T16:25:21.527Z,29.87
2018-12-14T16:27:50.036Z,32.67
2018-12-14T16:30:18.475Z,30.65
2018-12-14T16:32:46.774Z,29.07
2018-12-14T16:35:15.147Z,31.27
2018-12-14T16:37:43.468Z,32.17
2018-12-14T16:40:11.876Z,30.12
2018-12-14T16:42:40.240Z,32.25
2018-12-14T16:45:08.609Z,31.60
2018-12-14T16:47:37.460Z,30.32
2018-12-14T16:50:05.980Z,30.95
2018-12-14T16:52:34.274Z,30.40
2018-12-14T16:55:02.735Z,30.17
2018-12-14T16:57:31.265Z,37.65
2018-12-14T16:59:59.600Z,30.68
2018-12-14T17:02:28.200Z,30.88
2018-12-14T17:04:56.514Z,30.50
2018-12-14T17:07:24.938Z,33.75
2018-12-14T17:09:53.328Z,31.90
2018-12-14T17:12:21.569Z,30.55
2018-12-14T17:14:49.826Z,30.77
2018-12-14T17:17:18.191Z,30.17
2018-12-14T17:19:46.532Z,31.27
2018-12-14T17:22:14.883Z,32.05
2018-12-14T17:24:43.461Z,32.30
2018-12-14T17:27:11.911Z,30.70
2018-12-14T17:29:40.625Z,31.07
2018-12-14T17:32:09.041Z,31.30
2018-12-14T17:34:37.557Z,33.70
2018-12-14T17:37:05.968Z,33.25
2018-12-14T17:39:34.236Z,33.02
2018-12-14T17:42:02.559Z,31.95
2018-12-14T17:44:30.929Z,32.15
2018-12-14T17:46:59.298Z,33.53
2018-12-14T17:49:27.790Z,32.93
2018-12-14T17:51:56.237Z,32.73
2018-12-14T17:54:24.586Z,33.63
2018-12-14T17:56:52.902Z,32.75
2018-12-14T17:59:21.326Z,33.73
2018-12-14T18:01:49.697Z,32.70
2018-12-14T18:04:18.233Z,31.57
2018-12-14T18:06:48.121Z,33.25
2018-12-14T18:09:16.484Z,32.05
2018-12-14T18:11:44.901Z,31.93
2018-12-14T18:14:13.254Z,34.92
2018-12-14T18:16:41.887Z,33.80
2018-12-14T18:19:10.418Z,33.50
2018-12-14T18:21:38.854Z,33.48
2018-12-14T18:24:07.342Z,35.17
2018-12-14T18:26:35.672Z,34.75
2018-12-14T18:29:04.097Z,34.67
2018-12-14T18:31:32.568Z,34.00
2018-12-14T18:34:00.861Z,34.48
2018-12-14T18:36:29.171Z,34.80
2018-12-14T18:38:57.408Z,34.85
2018-12-14T18:41:25.651Z,34.80
2018-12-14T18:43:53.989Z,35.60
2018-12-14T18:46:22.237Z,36.40
2018-12-14T18:48:50.496Z,36.60
2018-12-14T18:51:18.868Z,35.00
2018-12-14T18:53:52.170Z,34.33
2018-12-14T18:56:20.575Z,35.78
2018-12-14T18:58:49.187Z,35.23
2018-12-14T19:01:17.818Z,36.55
2018-12-14T19:03:46.046Z,35.08
2018-12-14T19:06:14.398Z,34.90
2018-12-14T19:08:42.694Z,37.17
2018-12-14T19:11:10.970Z,35.95
2018-12-14T19:13:39.180Z,36.30
2018-12-14T19:16:07.559Z,36.83
2018-12-14T19:18:35.972Z,35.43
2018-12-14T19:21:04.292Z,38.42
2018-12-14T19:23:32.866Z,35.77
2018-12-14T19:26:01.143Z,36.73
2018-12-14T19:28:29.433Z,35.90
2018-12-14T19:30:57.801Z,39.42
2018-12-14T19:33:26.148Z,39.23
2018-12-14T19:35:54.456Z,36.88
2018-12-14T19:38:22.717Z,41.83
2018-12-14T19:40:51.094Z,37.67
2018-12-14T19:43:19.440Z,39.40
2018-12-14T19:45:47.716Z,41.20
2018-12-14T19:48:16.187Z,41.00
2018-12-14T19:50:44.562Z,35.92
2018-12-14T19:54:42.331Z,36.42
2018-12-14T19:57:10.819Z,37.73
2018-12-14T19:59:39.225Z,40.25
2018-12-14T20:02:07.688Z,38.20
2018-12-14T20:04:35.964Z,38.58
2018-12-14T20:07:04.714Z,36.53
2018-12-14T20:09:33.151Z,36.33
2018-12-14T20:12:01.443Z,35.25
2018-12-14T20:14:30.816Z,35.57
2018-12-14T20:16:59.186Z,38.38
2018-12-14T20:19:27.727Z,38.73
2018-12-14T20:21:56.083Z,39.53
2018-12-14T20:24:24.761Z,37.70
2018-12-14T20:26:53.341Z,36.88
2018-12-14T20:29:21.842Z,34.70
2018-12-14T20:31:50.304Z,37.65
2018-12-14T20:34:19.609Z,35.68
2018-12-14T20:36:48.599Z,40.38
2018-12-14T20:39:17.132Z,35.17
2018-12-14T20:41:45.546Z,34.60
2018-12-14T20:44:14.025Z,34.05
2018-12-14T20:46:42.761Z,33.53
2018-12-14T20:49:11.240Z,33.98
2018-12-14T20:51:40.746Z,33.55
2018-12-14T20:54:09.760Z,39.57
2018-12-14T20:56:38.487Z,32.88
2018-12-14T20:59:06.941Z,34.60
2018-12-14T21:01:35.268Z,32.42
2018-12-14T21:04:03.554Z,33.15
2018-12-14T21:06:31.833Z,32.38
2018-12-14T21:09:00.120Z,30.60
2018-12-14T21:11:28.484Z,33.02
2018-12-14T21:13:56.763Z,30.43
2018-12-14T21:16:26.081Z,31.37
2018-12-14T21:18:54.938Z,30.80
2018-12-14T21:21:23.316Z,31.57
2018-12-14T21:23:51.655Z,31.35
2018-12-14T21:26:20.211Z,30.50
2018-12-14T21:28:49.109Z,31.50
2018-12-14T21:31:17.871Z,31.42
2018-12-14T21:33:46.439Z,30.00
2018-12-14T21:36:14.972Z,31.73
2018-12-14T21:38:43.399Z,29.07
2018-12-14T21:41:11.903Z,30.92
2018-12-14T21:43:40.428Z,29.55
2018-12-14T21:46:09.038Z,29.67
2018-12-14T21:48:37.874Z,29.32
2018-12-14T21:51:06.603Z,28.85
2018-12-14T21:53:35.211Z,28.73
2018-12-14T21:56:04.048Z,30.50
2018-12-14T21:58:32.482Z,29.32
2018-12-14T22:01:01.503Z,29.45
2018-12-14T22:03:31.384Z,28.10
2018-12-14T22:06:00.097Z,29.75
2018-12-14T22:08:28.339Z,28.33
2018-12-14T22:10:57.681Z,29.65
2018-12-14T22:13:26.448Z,29.93
2018-12-14T22:15:54.969Z,29.52
2018-12-14T22:18:23.732Z,27.77
2018-12-14T22:20:52.173Z,27.62
2018-12-14T22:23:20.693Z,27.52
2018-12-14T22:25:49.569Z,27.48
2018-12-14T22:28:17.998Z,29.80
2018-12-14T22:30:46.470Z,28.10
2018-12-14T22:33:15.896Z,27.90
2018-12-14T22:35:44.322Z,27.52
2018-12-14T22:38:13.101Z,27.60
2018-12-14T22:40:41.835Z,27.37
2018-12-14T22:43:10.237Z,28.77
2018-12-14T22:45:39.227Z,27.73
2018-12-14T22:48:07.764Z,26.30
2018-12-14T22:50:36.466Z,26.65
2018-12-14T22:53:05.218Z,25.65
2018-12-14T22:55:33.712Z,24.60
2018-12-14T22:58:02.185Z,28.00
2018-12-14T23:00:30.639Z,25.77
2018-12-14T23:02:59.239Z,25.52
2018-12-14T23:05:27.937Z,27.82
2018-12-14T23:07:56.830Z,30.08
2018-12-14T23:10:25.699Z,27.05
2018-12-14T23:12:54.417Z,27.52
2018-12-14T23:32:39.541Z,23.50
2018-12-14T23:35:08.044Z,22.30
2018-12-14T23:37:36.675Z,22.75
2018-12-14T23:40:05.192Z,23.90
2018-12-14T23:42:33.430Z,21.93
2018-12-14T23:45:01.819Z,21.45
2018-12-14T23:47:30.260Z,21.33
2018-12-14T23:49:58.699Z,22.00
2018-12-14T23:52:27.244Z,21.23
2018-12-14T23:54:55.595Z,21.60
2018-12-14T23:57:24.083Z,21.12
2018-12-14T23:59:52.819Z,20.85
